Corona Del Mar, CA (92625)

4:06 PM PDT on May 06, 2015 (GMT -0700)
Irvine Terrace | | Change Station
CLOSE
Current Station
Personal Weather Station
Location: Corona Del Mar, CA
Elevation: 66 ft
Nearby Weather Stations
Active Advisory: Beach Hazard Statement

Elev 66 ft 33.60 °N, 117.88 °W | Updated 1 minute ago

Overcast
Overcast
69.4 °F
Feels Like 69.4 °F
N
8.0
Wind Variable Wind from SW
Gusts 8.0 mph

Today
High -- | Low -- °F
--% Chance of Precip.
Yesterday
High -- | Low -- °F
Precip. -- in
5:58 AM 7:38 PM
Waning Gibbous, 92% visible
Pressure 29.86 in
Visibility 10.0 miles
Clouds Few 3500 ft
Mostly Cloudy 5000 ft
Dew Point 52 °F
Humidity 53%
Rainfall 0.00 in
Snow Depth Not available.
UV 3 out of 12
Pollen 5.60 out of 12
Air Quality Not available.
Flu Activity Sporadic
METAR KSNA 062253Z 19009KT 10SM FEW035 BKN050 19/09 A2985 RMK AO2 SLP109 T01890089

More Conditions Fewer Conditions

Pressure 29.86 in
Visibility 10.0 miles
Clouds Few 3500 ft
Mostly Cloudy 5000 ft
Dew Point 52 °F
Humidity 53%
Rainfall 0.00 in
Snow Depth Not available.
UV 3 out of 12
Pollen 5.60 out of 12
Air Quality Not available.
Flu Activity Sporadic
METAR KSNA 062253Z 19009KT 10SM FEW035 BKN050 19/09 A2985 RMK AO2 SLP109 T01890089

More Conditions Fewer Conditions

10-Day Weather Forecast

Almanac

Astronomy

May. 06, 2015 Rise Set
Actual Time
Civil Twilight
Nautical Twilight
Astronomical Twilight
Moon
Length of Visible Light
Length of Day
Tomorrow will be .
, % of the Moon is Illuminated

Today's Extremes

State Highs State Lows

Community

WunderPhotos

Upload Photos

1,819,039 photos uploaded!

WunderBlogs® & News

Nearby

Air Quality

  Air Quality AQ Index Pollutant
Not available.

Snow Depth

Station Depth Elevation

Earthquake Activity

City Distance Mag. Time & Date
Minimum magnitude displayed is 2.5.

Coastal Water Temperatures

Place Temperature

Stations

Nearby Weather Stations

Station Location Temp. Windchill Dew Point Humidity Wind Precip. Elev Updated Type
                   
Beach Hazard Statement
Statement as of 1:12 PM PDT on May 06, 2015

... Beach hazards statement remains in effect until 10 PM PDT this
evening...

* waves and surf... 4 to 6 feet with occasional sets to 7 feet.
Sets up to 10 feet at The Wedge.

* Timing... through the evening.

* Impacts... dangerous swimming conditions. People standing too
close to the waves may be swept off their feet and injured.

Precautionary/preparedness actions...

A beach hazards statement is issued when threats such as strong
rip currents... elevated surf heights... minor tidal overflow... or
lightning are possible at local beaches. Obey posted warning
signs and flags and talk to a lifeguard before swimming. Use
caution when in or near the water and always swim near a
lifeguard.



Mm